Time;durP1;ratioP1;P1;durP2;ratioP2;P2;SDS_P1;SDS_P2;PMS_P1;PMS_P2;Temp;Humidity;BMP_temperature;BMP_pressure;BME280_temperature;BME280_humidity;BME280_pressure;Samples;Min_cycle;Max_cycle;Signal;HPM_P1;HPM_P2
2021/01/09 00:00:55;;;;;;;33.45;16.30;;;3.80;99.90;;;;;;5088242;28;20044;-69
2021/01/09 00:03:21;;;;;;;32.10;14.48;;;3.60;99.90;;;;;;5089322;28;20052;-69
2021/01/09 00:05:53;;;;;;;31.60;15.05;;;3.60;99.90;;;;;;5085761;28;20093;-69
2021/01/09 00:08:19;;;;;;;31.95;15.25;;;3.60;99.90;;;;;;5092596;28;20070;-70
2021/01/09 00:10:49;;;;;;;28.63;15.40;;;3.70;99.90;;;;;;5089496;28;20160;-72
2021/01/09 00:13:16;;;;;;;33.45;16.00;;;3.90;99.90;;;;;;5090233;28;20060;-68
2021/01/09 00:15:43;;;;;;;33.17;14.85;;;3.80;99.90;;;;;;5086817;28;20121;-72
2021/01/09 00:18:09;;;;;;;30.88;14.98;;;3.80;99.90;;;;;;5088003;28;20048;-68
2021/01/09 00:20:35;;;;;;;31.23;15.70;;;3.80;99.90;;;;;;5088386;28;20047;-69
2021/01/09 00:23:02;;;;;;;32.17;15.55;;;3.90;99.90;;;;;;5089161;28;20105;-69
2021/01/09 00:25:28;;;;;;;26.92;14.10;;;3.90;99.90;;;;;;5088546;28;20047;-67
2021/01/09 00:27:55;;;;;;;28.10;15.32;;;3.90;99.90;;;;;;5092678;28;20052;-67
2021/01/09 00:30:22;;;;;;;30.63;15.30;;;3.90;99.90;;;;;;5092439;28;20084;-67
2021/01/09 00:32:48;;;;;;;29.33;14.38;;;3.90;99.90;;;;;;5088898;28;20052;-67
2021/01/09 00:35:15;;;;;;;28.95;15.25;;;4.30;99.90;;;;;;5092430;28;20079;-67
2021/01/09 00:37:41;;;;;;;28.92;14.55;;;4.10;99.90;;;;;;5093384;28;20080;-68
2021/01/09 00:40:08;;;;;;;29.08;14.38;;;4.20;99.90;;;;;;5098718;27;20043;-69
2021/01/09 00:42:41;;;;;;;30.30;14.73;;;4.10;99.90;;;;;;5101012;28;20116;-69
2021/01/09 00:45:09;;;;;;;27.58;13.57;;;4.10;99.90;;;;;;5092911;28;20062;-67
2021/01/09 00:47:35;;;;;;;30.17;14.43;;;3.90;99.90;;;;;;5093537;28;20047;-68
2021/01/09 00:50:04;;;;;;;29.02;14.45;;;3.80;99.90;;;;;;5093854;28;20062;-68
2021/01/09 00:52:31;;;;;;;28.40;15.00;;;3.90;99.90;;;;;;5091777;28;20054;-71
2021/01/09 00:55:03;;;;;;;32.70;15.27;;;3.90;99.90;;;;;;5099226;28;20039;-68
2021/01/09 00:57:31;;;;;;;29.13;14.57;;;3.80;99.90;;;;;;5093508;28;20051;-68
2021/01/09 00:59:58;;;;;;;34.95;14.68;;;4.10;99.90;;;;;;5107918;28;20044;-68
2021/01/09 01:02:24;;;;;;;32.72;14.45;;;3.70;99.90;;;;;;5101406;27;20112;-68
2021/01/09 01:04:50;;;;;;;29.30;14.00;;;3.90;99.90;;;;;;5091273;28;20114;-68
2021/01/09 01:07:16;;;;;;;31.35;14.80;;;3.90;99.90;;;;;;5091373;27;20510;-68
2021/01/09 01:09:43;;;;;;;31.27;13.85;;;3.90;99.90;;;;;;5095188;28;20079;-68
2021/01/09 01:12:09;;;;;;;31.77;14.70;;;3.90;99.90;;;;;;5090092;28;20780;-68
2021/01/09 01:14:36;;;;;;;29.17;14.57;;;4.10;99.90;;;;;;5091666;28;20048;-68
2021/01/09 01:17:04;;;;;;;28.60;13.43;;;3.90;99.90;;;;;;5090360;28;20051;-68
2021/01/09 01:19:31;;;;;;;28.25;13.52;;;4.00;99.90;;;;;;5095459;28;20056;-68
2021/01/09 01:21:57;;;;;;;30.13;13.73;;;4.10;99.90;;;;;;5090500;28;20117;-67
2021/01/09 01:24:23;;;;;;;24.15;12.95;;;3.90;99.90;;;;;;5091529;27;20575;-68
2021/01/09 01:26:50;;;;;;;22.60;12.00;;;4.10;99.90;;;;;;5088804;28;20160;-68
2021/01/09 01:29:16;;;;;;;24.05;12.80;;;4.00;99.90;;;;;;5093170;28;20487;-67
2021/01/09 01:31:43;;;;;;;28.40;12.77;;;4.00;99.90;;;;;;5088601;28;20152;-68
2021/01/09 01:34:10;;;;;;;20.67;11.60;;;4.30;99.90;;;;;;5090280;28;20415;-70
2021/01/09 01:36:36;;;;;;;21.70;11.15;;;3.90;99.90;;;;;;5090798;27;20043;-68
2021/01/09 01:39:03;;;;;;;23.25;12.32;;;3.90;99.90;;;;;;5093142;28;20044;-68
2021/01/09 01:41:29;;;;;;;24.50;12.00;;;4.00;99.90;;;;;;5090970;28;20120;-68
2021/01/09 01:43:56;;;;;;;22.75;11.30;;;3.90;99.90;;;;;;5093017;28;20051;-68
2021/01/09 01:46:22;;;;;;;24.52;12.05;;;3.90;99.90;;;;;;5096365;28;20067;-68
2021/01/09 01:48:49;;;;;;;23.83;11.15;;;3.70;99.90;;;;;;5095525;28;20456;-68
2021/01/09 01:51:16;;;;;;;24.35;12.10;;;3.80;99.90;;;;;;5093989;28;20487;-68
2021/01/09 01:53:42;;;;;;;20.90;11.10;;;3.90;99.90;;;;;;5092715;28;20058;-68
2021/01/09 01:56:09;;;;;;;22.52;11.38;;;3.80;99.90;;;;;;5097225;27;20052;-68
2021/01/09 01:58:36;;;;;;;21.33;10.55;;;3.70;99.90;;;;;;5096405;28;20047;-68
2021/01/09 02:01:02;;;;;;;19.35;10.48;;;3.60;99.90;;;;;;5092228;28;20131;-69
2021/01/09 02:03:30;;;;;;;21.65;10.48;;;3.40;99.90;;;;;;5093086;28;20039;-68
2021/01/09 02:06:11;;;;;;;20.08;11.00;;;3.40;99.90;;;;;;5092290;28;20047;-69
2021/01/09 02:08:48;;;;;;;24.52;10.90;;;3.40;99.90;;;;;;5092483;28;20043;-68
2021/01/09 02:11:35;;;;;;;22.35;10.43;;;3.40;99.90;;;;;;5093281;28;20482;-68
2021/01/09 02:14:58;;;;;;;22.23;10.52;;;3.40;99.90;;;;;;5093335;28;20128;-68
2021/01/09 02:17:28;;;;;;;21.13;10.13;;;3.40;99.90;;;;;;5090678;28;20155;-67
2021/01/09 02:19:58;;;;;;;21.25;10.35;;;3.50;99.90;;;;;;5093350;28;20097;-67
2021/01/09 02:22:25;;;;;;;19.98;9.90;;;3.40;99.90;;;;;;5091605;28;20135;-67
2021/01/09 02:24:52;;;;;;;20.75;9.68;;;3.60;99.90;;;;;;5091968;28;20112;-67
2021/01/09 02:27:19;;;;;;;22.70;10.02;;;3.70;99.90;;;;;;5094816;28;20090;-68
2021/01/09 02:30:00;;;;;;;16.25;9.27;;;3.60;99.90;;;;;;5095480;28;20139;-68
2021/01/09 02:32:43;;;;;;;19.65;10.07;;;3.70;99.90;;;;;;5099053;28;20131;-68
2021/01/09 02:35:11;;;;;;;20.48;9.60;;;3.50;99.90;;;;;;5092523;28;20082;-68
2021/01/09 02:37:38;;;;;;;20.92;9.88;;;3.50;99.90;;;;;;5093785;28;20498;-68
2021/01/09 02:40:06;;;;;;;20.27;9.95;;;3.50;99.90;;;;;;5094566;28;20097;-68
2021/01/09 02:42:32;;;;;;;19.65;9.45;;;3.50;99.90;;;;;;5092660;28;20056;-68
2021/01/09 02:44:59;;;;;;;14.88;8.25;;;3.40;99.90;;;;;;5093470;28;20087;-68
2021/01/09 02:47:26;;;;;;;17.65;9.75;;;3.20;99.90;;;;;;5092656;28;20483;-68
2021/01/09 02:49:52;;;;;;;19.13;8.80;;;3.20;99.90;;;;;;5092548;28;20060;-68
2021/01/09 02:52:18;;;;;;;18.77;9.45;;;3.00;99.90;;;;;;5094837;28;20100;-68
2021/01/09 02:54:44;;;;;;;18.02;8.23;;;3.00;99.90;;;;;;5091327;28;20134;-68
2021/01/09 02:57:11;;;;;;;17.90;9.20;;;2.90;99.90;;;;;;5091475;28;20039;-68
2021/01/09 02:59:38;;;;;;;16.63;8.32;;;2.90;99.90;;;;;;5096186;28;20078;-68
2021/01/09 03:02:04;;;;;;;17.48;9.35;;;2.90;99.90;;;;;;5092691;28;20056;-68
2021/01/09 03:04:30;;;;;;;17.65;9.45;;;3.00;99.90;;;;;;5095501;28;20483;-68
2021/01/09 03:07:11;;;;;;;15.60;8.30;;;2.80;99.90;;;;;;5041980;28;20735;-68
2021/01/09 03:09:39;;;;;;;17.90;8.40;;;2.90;99.90;;;;;;5030126;28;20116;-68
2021/01/09 03:12:07;;;;;;;15.43;8.38;;;2.70;99.90;;;;;;5047321;28;20099;-68
2021/01/09 03:14:33;;;;;;;15.70;7.65;;;2.70;99.90;;;;;;5047603;28;20582;-69
2021/01/09 03:16:59;;;;;;;16.30;8.20;;;2.70;99.90;;;;;;5048740;28;20068;-68
2021/01/09 03:19:26;;;;;;;15.43;8.15;;;2.60;99.90;;;;;;5049363;28;20043;-68
2021/01/09 03:21:54;;;;;;;14.85;8.63;;;2.70;99.90;;;;;;5046851;28;20301;-68
2021/01/09 03:24:21;;;;;;;13.63;7.53;;;2.70;99.90;;;;;;5049977;28;20052;-69
2021/01/09 03:26:48;;;;;;;17.15;7.65;;;2.80;99.90;;;;;;5045978;28;20144;-68
2021/01/09 03:29:14;;;;;;;15.98;7.50;;;2.70;99.90;;;;;;5046767;28;20830;-68
2021/01/09 03:31:40;;;;;;;18.77;8.57;;;2.80;99.90;;;;;;5049690;28;20049;-69
2021/01/09 03:34:07;;;;;;;14.32;7.47;;;2.70;99.90;;;;;;5049317;28;20049;-69
2021/01/09 03:36:33;;;;;;;17.08;7.82;;;2.70;99.90;;;;;;5045659;28;20605;-67
2021/01/09 03:38:59;;;;;;;17.17;8.23;;;2.80;99.90;;;;;;5047238;28;20566;-69
2021/01/09 03:41:26;;;;;;;15.43;7.60;;;2.80;99.90;;;;;;5046409;28;20051;-68
2021/01/09 03:43:52;;;;;;;17.23;7.72;;;2.70;99.90;;;;;;5061812;28;20083;-67
2021/01/09 03:46:19;;;;;;;17.70;7.45;;;2.70;99.90;;;;;;5090113;28;20067;-67
2021/01/09 03:48:45;;;;;;;17.45;8.10;;;2.60;99.90;;;;;;5090453;28;20070;-68
2021/01/09 03:51:11;;;;;;;18.50;7.97;;;2.80;99.90;;;;;;5097618;28;20121;-67
2021/01/09 03:53:38;;;;;;;15.25;7.05;;;2.70;99.90;;;;;;5091825;28;20394;-69
2021/01/09 03:56:04;;;;;;;19.25;7.80;;;2.80;99.90;;;;;;5090304;28;20079;-68
2021/01/09 03:58:31;;;;;;;14.80;7.20;;;2.70;99.90;;;;;;5088355;28;20131;-67
2021/01/09 04:00:57;;;;;;;16.52;8.65;;;2.80;99.90;;;;;;5085609;28;20047;-67
2021/01/09 04:03:24;;;;;;;20.35;8.90;;;2.70;99.90;;;;;;5090903;28;20533;-68
2021/01/09 04:05:50;;;;;;;16.92;8.23;;;2.70;99.90;;;;;;5090896;28;20074;-69
2021/01/09 04:08:16;;;;;;;16.35;7.53;;;2.70;99.90;;;;;;5096827;28;20075;-68
2021/01/09 04:10:43;;;;;;;16.92;7.80;;;2.70;99.90;;;;;;5090620;28;20482;-68
2021/01/09 04:13:09;;;;;;;17.85;8.48;;;2.70;99.90;;;;;;5090321;28;20128;-68
2021/01/09 04:15:36;;;;;;;15.82;7.72;;;2.70;99.90;;;;;;5087687;28;20494;-69
2021/01/09 04:18:02;;;;;;;17.67;8.60;;;2.70;99.90;;;;;;5089703;28;20104;-68
2021/01/09 04:20:30;;;;;;;15.60;7.72;;;2.70;99.90;;;;;;5092638;28;20051;-68
2021/01/09 04:22:56;;;;;;;16.63;8.05;;;2.90;99.90;;;;;;5092126;28;20129;-69
2021/01/09 04:25:22;;;;;;;16.60;8.10;;;2.80;99.90;;;;;;5089652;28;20056;-68
2021/01/09 04:27:49;;;;;;;16.38;7.63;;;2.90;99.90;;;;;;5091722;28;20090;-68
2021/01/09 04:30:16;;;;;;;17.38;7.78;;;3.00;99.90;;;;;;5089544;28;21225;-68
2021/01/09 04:32:42;;;;;;;16.98;8.20;;;3.00;99.90;;;;;;5090485;28;20060;-68
2021/01/09 04:35:09;;;;;;;17.05;8.57;;;2.90;99.90;;;;;;5091942;28;20048;-69
2021/01/09 04:37:38;;;;;;;17.38;8.30;;;2.90;99.90;;;;;;5089308;28;20070;-68
2021/01/09 04:40:06;;;;;;;17.23;8.10;;;2.70;99.90;;;;;;5092384;28;20048;-69
2021/01/09 04:42:35;;;;;;;16.48;8.35;;;2.80;99.90;;;;;;5091207;28;20525;-68
2021/01/09 04:45:03;;;;;;;18.00;8.63;;;2.90;99.90;;;;;;5091415;28;20395;-68
2021/01/09 04:47:31;;;;;;;19.50;8.38;;;3.00;99.90;;;;;;5092426;28;20544;-68
2021/01/09 04:49:57;;;;;;;18.52;7.95;;;3.20;99.90;;;;;;5091206;28;20056;-68
2021/01/09 04:52:24;;;;;;;16.17;7.95;;;3.50;99.90;;;;;;5090521;28;20135;-68
2021/01/09 04:54:51;;;;;;;17.52;8.25;;;3.10;99.90;;;;;;5089934;28;20052;-68
2021/01/09 04:57:17;;;;;;;17.05;8.30;;;3.20;99.90;;;;;;5090726;28;20048;-69
2021/01/09 04:59:45;;;;;;;17.85;8.15;;;3.40;99.90;;;;;;5087634;28;20075;-68
2021/01/09 05:02:13;;;;;;;19.17;8.50;;;3.10;99.90;;;;;;5090796;28;20477;-68
2021/01/09 05:04:44;;;;;;;18.70;8.57;;;3.20;99.90;;;;;;5087946;28;20072;-68
2021/01/09 05:07:11;;;;;;;15.30;8.02;;;3.20;99.90;;;;;;5088616;28;20143;-69
2021/01/09 05:09:37;;;;;;;16.95;8.40;;;3.20;99.90;;;;;;5089336;28;20453;-69
2021/01/09 05:12:05;;;;;;;22.75;8.50;;;3.20;99.90;;;;;;5089923;28;20143;-68
2021/01/09 05:14:33;;;;;;;15.95;7.68;;;3.00;99.90;;;;;;5095117;28;20051;-69
2021/01/09 05:17:00;;;;;;;17.75;8.45;;;3.00;99.90;;;;;;5095339;28;20131;-68
2021/01/09 05:19:29;;;;;;;17.73;8.45;;;3.10;99.90;;;;;;5101267;28;20063;-68
2021/01/09 05:22:01;;;;;;;19.58;8.60;;;3.10;99.90;;;;;;5095007;28;20044;-69
2021/01/09 05:24:28;;;;;;;18.45;9.02;;;3.10;99.90;;;;;;5094403;28;20134;-68
2021/01/09 05:26:55;;;;;;;19.10;8.43;;;2.80;99.90;;;;;;5093765;28;20372;-68
2021/01/09 05:29:21;;;;;;;17.95;8.52;;;3.00;99.90;;;;;;5094420;28;20138;-68
2021/01/09 05:31:48;;;;;;;16.65;8.43;;;3.00;99.90;;;;;;5091385;28;20071;-68
2021/01/09 05:34:15;;;;;;;18.48;8.68;;;3.00;99.90;;;;;;5096473;28;20070;-67
2021/01/09 05:36:42;;;;;;;18.25;8.95;;;3.00;99.90;;;;;;5093604;28;20039;-68
2021/01/09 05:39:08;;;;;;;19.75;8.60;;;3.30;99.90;;;;;;5093983;28;20086;-68
2021/01/09 05:41:41;;;;;;;15.40;8.23;;;3.10;99.90;;;;;;5094533;27;20059;-68
2021/01/09 05:44:09;;;;;;;19.15;8.25;;;3.20;99.90;;;;;;5096488;28;20126;-68
2021/01/09 05:46:40;;;;;;;15.77;7.80;;;3.30;99.90;;;;;;5104340;28;20056;-68
2021/01/09 05:49:08;;;;;;;18.23;8.45;;;3.20;99.90;;;;;;5112667;28;20427;-69
2021/01/09 05:51:40;;;;;;;22.55;9.65;;;3.30;99.90;;;;;;5105071;28;20055;-68
2021/01/09 05:54:07;;;;;;;;;;;3.00;99.90;;;;;;5112301;28;20094;-68
2021/01/09 05:56:39;;;;;;;18.73;8.35;;;3.00;99.90;;;;;;5112010;28;19959;-68
2021/01/09 05:59:06;;;;;;;16.95;8.27;;;3.20;99.90;;;;;;5108252;28;20514;-69
2021/01/09 06:01:35;;;;;;;16.63;8.43;;;2.90;99.90;;;;;;5106794;28;20071;-68
2021/01/09 06:04:04;;;;;;;;;;;3.00;99.90;;;;;;5105733;27;20048;-68
2021/01/09 06:06:44;;;;;;;18.05;7.88;;;3.00;99.90;;;;;;5106683;28;19958;-68
2021/01/09 06:09:13;;;;;;;21.95;9.32;;;3.20;99.90;;;;;;5099955;28;20131;-68
2021/01/09 06:11:41;;;;;;;15.53;7.87;;;3.20;99.90;;;;;;5113011;28;20372;-69
2021/01/09 06:14:10;;;;;;;17.67;7.97;;;3.20;99.90;;;;;;5106846;28;20100;-68
2021/01/09 06:16:41;;;;;;;20.05;9.10;;;3.10;99.90;;;;;;5102757;28;20213;-68
2021/01/09 06:19:09;;;;;;;21.13;8.93;;;3.20;99.90;;;;;;5109183;28;20097;-69
2021/01/09 06:21:36;;;;;;;18.98;8.57;;;3.20;99.90;;;;;;5109233;28;20043;-69
2021/01/09 06:24:05;;;;;;;21.30;8.85;;;3.30;99.90;;;;;;5107705;28;20051;-68
2021/01/09 06:26:32;;;;;;;18.95;8.98;;;3.10;99.90;;;;;;5108081;28;20109;-69
2021/01/09 06:29:04;;;;;;;18.40;8.60;;;3.10;99.90;;;;;;5110971;28;20051;-69
2021/01/09 06:31:32;;;;;;;20.10;9.00;;;3.30;99.90;;;;;;5108699;28;20089;-69
2021/01/09 06:34:01;;;;;;;19.65;9.38;;;3.20;99.90;;;;;;5108963;28;20434;-69
2021/01/09 06:36:28;;;;;;;23.40;8.98;;;3.20;99.90;;;;;;5110072;28;20387;-69
2021/01/09 06:38:57;;;;;;;18.17;8.75;;;3.20;99.90;;;;;;5110553;28;20047;-69
2021/01/09 06:41:29;;;;;;;18.75;8.52;;;3.10;99.90;;;;;;5102986;28;20040;-70
2021/01/09 06:43:55;;;;;;;20.13;8.60;;;3.40;99.90;;;;;;5109502;28;20071;-70
2021/01/09 06:46:30;;;;;;;19.52;8.95;;;3.00;99.90;;;;;;5105842;28;20079;-68
2021/01/09 06:49:00;;;;;;;20.73;9.57;;;3.20;99.90;;;;;;5104273;28;20123;-67
2021/01/09 06:51:35;;;;;;;19.73;8.82;;;3.20;99.90;;;;;;5112917;28;20071;-68
2021/01/09 06:54:14;;;;;;;18.98;9.32;;;3.00;99.90;;;;;;5106734;28;20086;-68
2021/01/09 06:56:44;;;;;;;19.73;8.80;;;3.20;99.90;;;;;;5109865;28;20120;-68
2021/01/09 06:59:29;;;;;;;;;;;3.20;99.90;;;;;;5112457;28;20093;-69
2021/01/09 07:02:15;;;;;;;18.20;8.18;;;3.20;99.90;;;;;;5108263;28;19950;-69
2021/01/09 07:04:54;;;;;;;23.23;9.13;;;3.10;99.90;;;;;;5101491;28;20071;-68
2021/01/09 07:07:39;;;;;;;18.75;8.55;;;3.10;99.90;;;;;;5107538;28;20056;-69
2021/01/09 07:10:07;;;;;;;20.80;9.27;;;3.10;99.90;;;;;;5106604;28;20567;-69
2021/01/09 07:12:34;;;;;;;21.02;9.38;;;3.20;99.90;;;;;;5103157;28;20083;-69
2021/01/09 07:15:08;;;;;;;20.00;9.43;;;3.10;99.90;;;;;;5106392;28;20102;-69
2021/01/09 07:17:40;;;;;;;20.67;9.27;;;3.20;99.90;;;;;;5108138;27;20071;-69
2021/01/09 07:20:12;;;;;;;22.27;9.55;;;3.20;99.90;;;;;;5103728;28;20493;-69
2021/01/09 07:22:41;;;;;;;20.08;9.40;;;3.30;99.90;;;;;;5111683;28;20048;-69
2021/01/09 07:25:11;;;;;;;20.35;9.30;;;3.30;99.90;;;;;;5105805;28;20460;-69
2021/01/09 07:27:48;;;;;;;20.52;9.57;;;3.30;99.90;;;;;;5104454;28;20074;-69
2021/01/09 07:30:17;;;;;;;20.83;9.43;;;3.00;99.90;;;;;;5109337;28;20040;-68
2021/01/09 07:32:48;;;;;;;21.00;9.18;;;3.00;99.90;;;;;;5100706;28;20062;-68
2021/01/09 07:35:24;;;;;;;19.90;9.30;;;3.00;99.90;;;;;;5102178;28;20170;-69
2021/01/09 07:37:55;;;;;;;22.48;10.10;;;3.10;99.90;;;;;;5105467;28;20082;-69
2021/01/09 07:40:22;;;;;;;22.08;9.48;;;3.20;99.90;;;;;;5107276;28;20135;-68
2021/01/09 07:42:50;;;;;;;21.35;10.40;;;3.10;99.90;;;;;;5105640;28;20044;-68
2021/01/09 07:45:19;;;;;;;20.98;9.45;;;3.10;99.90;;;;;;5106585;27;20082;-69
2021/01/09 07:47:48;;;;;;;27.40;9.73;;;3.10;99.90;;;;;;5100610;28;20087;-68
2021/01/09 07:50:17;;;;;;;20.45;9.65;;;3.10;99.90;;;;;;5110695;28;20427;-68
2021/01/09 07:52:45;;;;;;;18.25;8.88;;;3.10;99.90;;;;;;5104972;28;20447;-68
2021/01/09 07:55:18;;;;;;;22.30;9.73;;;3.10;99.90;;;;;;5108175;28;20554;-69
2021/01/09 07:57:45;;;;;;;23.92;10.65;;;3.10;99.90;;;;;;5111261;28;20164;-69
2021/01/09 08:00:15;;;;;;;25.85;10.20;;;3.10;99.90;;;;;;5106023;28;20096;-68
2021/01/09 08:02:44;;;;;;;20.63;9.97;;;3.10;99.90;;;;;;5090389;27;20076;-69
2021/01/09 08:05:21;;;;;;;22.85;10.15;;;3.10;99.90;;;;;;5092323;28;20048;-68
2021/01/09 08:07:57;;;;;;;23.30;10.65;;;3.10;99.90;;;;;;5091382;28;20138;-69
2021/01/09 08:10:33;;;;;;;20.95;9.63;;;3.50;99.90;;;;;;5093323;28;20047;-69
2021/01/09 08:13:05;;;;;;;22.95;10.25;;;3.10;99.90;;;;;;5089664;28;20048;-69
2021/01/09 08:15:34;;;;;;;23.90;9.73;;;3.20;99.90;;;;;;5091064;28;20044;-69
2021/01/09 08:18:05;;;;;;;20.73;9.65;;;3.30;99.90;;;;;;5090704;28;21071;-69
2021/01/09 08:20:33;;;;;;;27.27;10.30;;;3.40;99.90;;;;;;5096478;28;20110;-69
2021/01/09 08:23:04;;;;;;;24.27;10.35;;;3.50;99.90;;;;;;5092848;28;20474;-67
2021/01/09 08:25:33;;;;;;;24.95;10.60;;;3.60;99.90;;;;;;5090176;28;20056;-69
2021/01/09 08:28:01;;;;;;;21.92;9.50;;;3.50;99.90;;;;;;5090105;28;20048;-69
2021/01/09 08:30:35;;;;;;;23.13;10.27;;;3.30;99.90;;;;;;5087078;28;21700;-68
2021/01/09 08:33:09;;;;;;;22.25;8.98;;;3.40;99.90;;;;;;5090948;28;20088;-68
2021/01/09 08:35:46;;;;;;;25.20;10.02;;;3.60;99.90;;;;;;5089693;28;20904;-68
2021/01/09 08:38:13;;;;;;;26.33;10.60;;;3.60;99.90;;;;;;5091056;28;20156;-70
2021/01/09 08:40:40;;;;;;;25.48;10.30;;;3.60;99.90;;;;;;5089650;28;20459;-69
2021/01/09 08:43:08;;;;;;;21.73;10.20;;;3.90;99.90;;;;;;5088562;28;20040;-69
2021/01/09 08:45:45;;;;;;;23.88;9.85;;;3.90;99.90;;;;;;5086879;28;20098;-68
2021/01/09 08:48:16;;;;;;;23.33;10.98;;;3.70;99.90;;;;;;5088241;28;20059;-69
2021/01/09 08:51:04;;;;;;;22.70;10.20;;;3.60;99.90;;;;;;5094402;28;20109;-69
2021/01/09 08:53:53;;;;;;;23.85;10.80;;;3.60;99.90;;;;;;5097025;28;20538;-68
2021/01/09 08:56:20;;;;;;;23.33;10.90;;;3.90;99.90;;;;;;5088387;28;20535;-69
2021/01/09 08:58:47;;;;;;;23.27;10.30;;;3.70;99.90;;;;;;5091690;28;20080;-69
2021/01/09 09:01:17;;;;;;;23.05;11.27;;;3.70;99.90;;;;;;5095695;28;20047;-69
2021/01/09 09:03:48;;;;;;;21.50;9.43;;;4.10;99.90;;;;;;5093616;28;20131;-68
2021/01/09 09:06:16;;;;;;;26.58;10.52;;;4.00;99.90;;;;;;5094579;28;20450;-69
2021/01/09 09:08:43;;;;;;;22.73;10.82;;;4.20;99.90;;;;;;5095220;28;20048;-68
2021/01/09 09:11:10;;;;;;;24.50;11.18;;;3.80;99.90;;;;;;5095492;28;20104;-69
2021/01/09 09:13:36;;;;;;;24.23;10.40;;;4.10;99.90;;;;;;5090507;28;20411;-70
2021/01/09 09:16:20;;;;;;;20.00;9.93;;;3.90;99.90;;;;;;5096587;28;20058;-70
2021/01/09 09:18:48;;;;;;;23.20;10.32;;;4.20;99.90;;;;;;5092998;28;20506;-69
2021/01/09 09:21:18;;;;;;;23.95;10.18;;;4.60;99.90;;;;;;5097191;28;20048;-69
2021/01/09 09:23:52;;;;;;;23.45;10.60;;;4.40;99.90;;;;;;5093151;28;20209;-70
2021/01/09 09:26:18;;;;;;;25.60;10.90;;;4.40;99.90;;;;;;5091595;28;20091;-69
2021/01/09 09:28:55;;;;;;;21.45;10.38;;;4.30;99.90;;;;;;5095106;28;20124;-70
2021/01/09 09:31:35;;;;;;;20.42;9.63;;;4.60;99.90;;;;;;5094079;28;20062;-68
2021/01/09 09:34:05;;;;;;;20.65;9.30;;;6.30;99.50;;;;;;5093045;28;20218;-68
2021/01/09 09:36:34;;;;;;;19.25;8.93;;;6.50;96.70;;;;;;5096354;28;20075;-69
2021/01/09 09:39:11;;;;;;;19.70;9.47;;;6.20;97.10;;;;;;5090356;28;20132;-70
2021/01/09 09:41:47;;;;;;;21.38;9.35;;;6.60;96.10;;;;;;5094715;28;20081;-68
2021/01/09 09:44:14;;;;;;;18.83;9.63;;;6.90;95.00;;;;;;5096860;28;20083;-69
2021/01/09 09:46:41;;;;;;;21.20;10.05;;;5.70;96.00;;;;;;5091514;28;20109;-69
2021/01/09 09:49:07;;;;;;;19.05;9.70;;;5.40;97.60;;;;;;5092654;28;20044;-68
2021/01/09 09:51:35;;;;;;;20.33;10.13;;;5.30;98.70;;;;;;5092475;28;20051;-69
2021/01/09 09:54:03;;;;;;;15.90;8.07;;;5.20;98.80;;;;;;5097828;28;20055;-70
2021/01/09 09:56:39;;;;;;;18.60;8.73;;;5.80;98.20;;;;;;5089945;27;20040;-70
2021/01/09 09:59:07;;;;;;;20.10;10.02;;;6.60;95.50;;;;;;5091462;28;20093;-70
2021/01/09 10:01:35;;;;;;;17.83;8.63;;;6.20;96.50;;;;;;5087859;28;20489;-69
2021/01/09 10:04:11;;;;;;;16.50;8.20;;;5.70;96.80;;;;;;5092411;28;20440;-70
2021/01/09 10:06:39;;;;;;;17.92;8.63;;;5.80;96.30;;;;;;5091999;28;20052;-69
2021/01/09 10:09:18;;;;;;;19.50;9.23;;;5.30;96.70;;;;;;5090238;28;20504;-69
2021/01/09 10:11:46;;;;;;;19.52;9.05;;;5.30;97.20;;;;;;5094351;28;20505;-69
2021/01/09 10:14:22;;;;;;;16.73;8.25;;;6.00;96.10;;;;;;5086802;28;20093;-68
2021/01/09 10:16:49;;;;;;;17.67;8.48;;;6.50;94.80;;;;;;5092564;28;20141;-68
2021/01/09 10:19:18;;;;;;;17.35;8.65;;;5.90;95.00;;;;;;5091087;27;20503;-69
2021/01/09 10:21:45;;;;;;;18.95;8.60;;;5.70;95.90;;;;;;5092706;28;20055;-69
2021/01/09 10:24:11;;;;;;;18.02;8.15;;;5.70;96.10;;;;;;5090220;28;20061;-69
2021/01/09 10:26:40;;;;;;;19.42;8.55;;;5.40;95.80;;;;;;5094497;28;20453;-70
2021/01/09 10:29:07;;;;;;;15.88;8.35;;;5.20;96.70;;;;;;5083981;28;20052;-70
2021/01/09 10:31:36;;;;;;;17.38;8.45;;;5.00;96.60;;;;;;5088266;27;20495;-71
2021/01/09 10:34:04;;;;;;;16.65;8.23;;;5.60;96.90;;;;;;5089151;28;20050;-78
2021/01/09 10:36:37;;;;;;;15.43;7.75;;;7.30;93.60;;;;;;5091987;28;20089;-74
2021/01/09 10:39:05;;;;;;;16.60;7.68;;;8.20;89.90;;;;;;5096218;28;20044;-73
2021/01/09 10:41:31;;;;;;;16.83;8.65;;;7.70;90.60;;;;;;5087160;28;20044;-70
2021/01/09 10:44:18;;;;;;;13.27;7.10;;;8.10;90.00;;;;;;5088774;28;20106;-70
2021/01/09 10:46:44;;;;;;;14.23;7.65;;;8.60;84.90;;;;;;5096895;28;20051;-70
2021/01/09 10:49:10;;;;;;;17.27;8.23;;;7.30;89.00;;;;;;5089549;28;20043;-70
2021/01/09 10:51:39;;;;;;;17.58;8.32;;;7.70;90.10;;;;;;5089074;28;20067;-69
2021/01/09 10:54:05;;;;;;;19.77;10.27;;;8.30;86.80;;;;;;5096564;28;20051;-69
2021/01/09 10:56:32;;;;;;;15.13;7.65;;;7.30;90.20;;;;;;5088654;28;21413;-69
2021/01/09 10:58:58;;;;;;;14.90;8.05;;;7.00;90.40;;;;;;5088129;28;20511;-69
2021/01/09 11:01:25;;;;;;;16.65;8.23;;;6.60;91.10;;;;;;5095320;28;20079;-70
2021/01/09 11:03:51;;;;;;;19.35;8.57;;;6.20;92.10;;;;;;5102176;28;20141;-69
2021/01/09 11:06:22;;;;;;;15.05;7.07;;;5.90;92.80;;;;;;5108877;28;20056;-69
2021/01/09 11:08:49;;;;;;;19.10;8.57;;;5.60;93.20;;;;;;5105349;28;20101;-69
2021/01/09 11:11:15;;;;;;;17.55;8.38;;;5.60;93.80;;;;;;5106422;28;20087;-70
2021/01/09 11:13:41;;;;;;;16.35;8.60;;;5.70;93.80;;;;;;5102625;28;20077;-71
2021/01/09 11:16:08;;;;;;;17.15;7.85;;;5.60;94.10;;;;;;5107920;28;20466;-71
2021/01/09 11:18:34;;;;;;;17.02;8.45;;;5.70;93.70;;;;;;5110503;28;20051;-71
2021/01/09 11:21:01;;;;;;;17.35;8.30;;;5.70;94.40;;;;;;5109191;28;20043;-71
2021/01/09 11:23:27;;;;;;;14.95;7.47;;;5.40;93.90;;;;;;5105478;28;20048;-71
2021/01/09 11:25:53;;;;;;;15.45;7.88;;;5.50;94.50;;;;;;5106367;28;20121;-71
2021/01/09 11:28:20;;;;;;;18.20;7.13;;;5.80;94.40;;;;;;5109260;28;20048;-71
2021/01/09 11:30:46;;;;;;;15.48;6.38;;;5.80;93.50;;;;;;5105088;28;20135;-73
2021/01/09 11:33:13;;;;;;;12.52;5.65;;;5.50;92.50;;;;;;5113192;28;20122;-71
2021/01/09 11:35:39;;;;;;;12.68;5.55;;;5.40;91.50;;;;;;5107741;28;20039;-71
2021/01/09 11:38:21;;;;;;;11.85;5.93;;;5.10;91.70;;;;;;5104932;28;20044;-71
2021/01/09 11:40:48;;;;;;;13.00;5.93;;;5.00;92.20;;;;;;5104039;28;20082;-73
2021/01/09 11:43:15;;;;;;;11.25;6.03;;;5.00;92.10;;;;;;5102008;28;20405;-71
2021/01/09 11:45:41;;;;;;;10.48;5.40;;;5.00;91.50;;;;;;5106506;28;20139;-74
2021/01/09 11:48:08;;;;;;;9.52;5.38;;;5.00;91.40;;;;;;5109005;28;20051;-72
2021/01/09 11:50:34;;;;;;;14.75;5.45;;;5.10;92.20;;;;;;5092536;28;20059;-72
2021/01/09 11:53:18;;;;;;;12.13;5.47;;;5.20;91.80;;;;;;5100417;28;20048;-70
2021/01/09 11:55:45;;;;;;;11.82;6.03;;;5.30;91.70;;;;;;5093468;28;20043;-71
2021/01/09 11:58:11;;;;;;;12.30;5.05;;;5.30;91.40;;;;;;5096232;28;20152;-72
2021/01/09 12:00:38;;;;;;;10.77;5.32;;;5.50;90.90;;;;;;5106088;28;20086;-72
2021/01/09 12:03:04;;;;;;;13.05;6.93;;;5.50;91.30;;;;;;5102494;28;20055;-72
2021/01/09 12:05:31;;;;;;;15.32;7.80;;;5.70;92.30;;;;;;5106535;28;20050;-71
2021/01/09 12:07:57;;;;;;;14.88;7.22;;;6.10;92.00;;;;;;5099899;28;20048;-72
2021/01/09 12:10:24;;;;;;;10.43;5.53;;;6.00;91.40;;;;;;5096468;28;20464;-72
2021/01/09 12:12:50;;;;;;;15.02;6.95;;;5.80;91.60;;;;;;5104041;28;20054;-73
2021/01/09 12:15:16;;;;;;;13.85;6.75;;;5.40;92.30;;;;;;5100458;28;20050;-72
2021/01/09 12:17:43;;;;;;;10.30;4.95;;;5.30;92.10;;;;;;5103431;28;20278;-73
2021/01/09 12:20:10;;;;;;;11.98;5.53;;;5.40;89.60;;;;;;5103142;28;20088;-72
2021/01/09 12:22:36;;;;;;;12.75;6.15;;;5.60;90.10;;;;;;5101945;28;20140;-72
2021/01/09 12:25:04;;;;;;;13.05;6.13;;;5.90;90.50;;;;;;5096087;28;20178;-72
2021/01/09 12:27:30;;;;;;;10.32;5.30;;;6.00;88.50;;;;;;5102515;28;20083;-71
2021/01/09 12:29:56;;;;;;;7.80;3.80;;;6.00;85.20;;;;;;5101302;28;20141;-71
2021/01/09 12:32:37;;;;;;;6.43;3.85;;;6.10;84.40;;;;;;5100630;28;20179;-70
2021/01/09 12:35:06;;;;;;;10.10;5.10;;;6.30;82.40;;;;;;5104042;28;20052;-72
2021/01/09 12:37:33;;;;;;;10.13;4.78;;;6.30;82.90;;;;;;5104037;28;20063;-70
2021/01/09 12:40:00;;;;;;;9.98;5.22;;;6.50;83.00;;;;;;5105982;28;20145;-71
2021/01/09 12:42:28;;;;;;;7.93;4.50;;;6.70;82.90;;;;;;5100594;28;20055;-72
2021/01/09 12:44:55;;;;;;;8.80;4.90;;;6.70;81.10;;;;;;5119555;28;20082;-72
2021/01/09 12:47:21;;;;;;;11.25;4.95;;;5.90;81.90;;;;;;5105199;28;20047;-72
2021/01/09 12:49:48;;;;;;;8.00;4.40;;;6.00;82.90;;;;;;5104089;28;20066;-72
2021/01/09 12:52:14;;;;;;;8.95;4.32;;;6.10;82.00;;;;;;5101105;28;20079;-71
2021/01/09 12:54:41;;;;;;;8.63;3.72;;;6.20;80.20;;;;;;5097879;28;20177;-73